Time;durP1;ratioP1;P1;durP2;ratioP2;P2;SDS_P1;SDS_P2;PMS_P1;PMS_P2;Temp;Humidity;BMP_temperature;BMP_pressure;BME280_temperature;BME280_humidity;BME280_pressure;Samples;Min_cycle;Max_cycle;Signal;HPM_P1;HPM_P2
2023/04/04 00:00:59;;;;;;;6.80;3.08;;;;;;;;;;5027685;28;20029;-84
2023/04/04 00:03:25;;;;;;;4.95;3.13;;;;;;;;;;5025199;28;20407;-86
2023/04/04 00:05:50;;;;;;;8.38;3.17;;;;;;;;;;5028773;28;20081;-85
2023/04/04 00:08:16;;;;;;;5.20;3.38;;;;;;;;;;5033954;28;20041;-82
2023/04/04 00:10:41;;;;;;;5.85;3.20;;;;;;;;;;5045845;28;20033;-84
2023/04/04 00:13:08;;;;;;;6.50;3.30;;;;;;;;;;5051409;28;20029;-85
2023/04/04 00:15:35;;;;;;;6.25;2.92;;;;;;;;;;5038149;28;20036;-86
2023/04/04 00:18:02;;;;;;;6.82;3.33;;;;;;;;;;5016180;28;20037;-85
2023/04/04 00:20:28;;;;;;;8.13;3.40;;;;;;;;;;5020654;28;20101;-84
2023/04/04 00:22:54;;;;;;;5.43;3.10;;;;;;;;;;5031954;28;20095;-83
2023/04/04 00:25:19;;;;;;;7.80;2.90;;;;;;;;;;5056512;28;20246;-85
2023/04/04 00:27:46;;;;;;;4.43;2.80;;;;;;;;;;5042680;28;20052;-86
2023/04/04 00:30:12;;;;;;;5.88;3.08;;;;;;;;;;5027479;28;20036;-86
2023/04/04 00:32:38;;;;;;;5.75;3.05;;;;;;;;;;5037614;28;20087;-85
2023/04/04 00:35:03;;;;;;;8.23;3.25;;;;;;;;;;5047065;28;20099;-85
2023/04/04 00:37:29;;;;;;;6.10;3.00;;;;;;;;;;5034412;28;20034;-85
2023/04/04 00:39:55;;;;;;;5.65;3.25;;;;;;;;;;5045645;28;20045;-86
2023/04/04 00:42:21;;;;;;;5.05;3.17;;;;;;;;;;5029272;28;20484;-83
2023/04/04 00:44:47;;;;;;;4.65;2.63;;;;;;;;;;5034225;28;20095;-86
2023/04/04 00:47:13;;;;;;;5.93;3.20;;;;;;;;;;5046140;28;20069;-86
2023/04/04 00:49:38;;;;;;;5.07;3.00;;;;;;;;;;5048105;28;20033;-86
2023/04/04 00:52:06;;;;;;;7.20;2.83;;;;;;;;;;5039262;28;20069;-84
2023/04/04 00:54:33;;;;;;;4.82;2.92;;;;;;;;;;5021730;28;20449;-85
2023/04/04 00:57:00;;;;;;;7.38;3.10;;;;;;;;;;5034446;28;20033;-85
2023/04/04 00:59:27;;;;;;;8.90;2.80;;;;;;;;;;5037216;28;20061;-84
2023/04/04 01:01:52;;;;;;;6.03;2.95;;;;;;;;;;5045691;28;20032;-87
2023/04/04 01:04:18;;;;;;;5.68;3.10;;;;;;;;;;5048346;28;20029;-85
2023/04/04 01:06:44;;;;;;;6.85;3.30;;;;;;;;;;5031883;28;20156;-85
2023/04/04 01:09:11;;;;;;;5.00;2.75;;;;;;;;;;5038087;28;20155;-86
2023/04/04 01:11:37;;;;;;;6.93;3.17;;;;;;;;;;5038441;28;20029;-87
2023/04/04 01:14:04;;;;;;;5.50;2.97;;;;;;;;;;5024914;28;20616;-85
2023/04/04 01:16:30;;;;;;;6.25;2.83;;;;;;;;;;5024703;28;20083;-87
2023/04/04 01:18:56;;;;;;;5.25;2.83;;;;;;;;;;5014786;28;20652;-86
2023/04/04 01:21:22;;;;;;;9.50;3.10;;;;;;;;;;5039878;28;20041;-86
2023/04/04 01:24:00;;;;;;;4.45;2.85;;;;;;;;;;5033344;28;20590;-84
2023/04/04 01:26:31;;;;;;;7.45;3.60;;;;;;;;;;5018464;28;20064;-85
2023/04/04 01:29:00;;;;;;;5.40;3.05;;;;;;;;;;5034009;28;20033;-84
2023/04/04 01:31:34;;;;;;;7.00;3.00;;;;;;;;;;5022349;28;20069;-85
2023/04/04 01:34:10;;;;;;;;;;;;;;;;;;5032937;28;20083;-82
2023/04/04 01:37:18;;;;;;;6.97;3.25;;;;;;;;;;5046286;28;19970;-87
2023/04/04 01:39:52;;;;;;;9.00;3.13;;;;;;;;;;5036752;28;20063;-85
2023/04/04 01:42:19;;;;;;;6.32;2.90;;;;;;;;;;5037457;22;20045;-81
2023/04/04 01:44:46;;;;;;;6.13;3.15;;;;;;;;;;5055758;28;20044;-82
2023/04/04 01:47:12;;;;;;;7.45;3.13;;;;;;;;;;5074037;28;20033;-81
2023/04/04 01:49:39;;;;;;;6.75;3.20;;;;;;;;;;5074227;28;20078;-82
2023/04/04 01:52:06;;;;;;;3.88;2.53;;;;;;;;;;5073998;28;20024;-81
2023/04/04 01:54:34;;;;;;;4.80;3.00;;;;;;;;;;5074134;28;20036;-82
2023/04/04 01:57:00;;;;;;;7.22;3.30;;;;;;;;;;5072915;28;20090;-82
2023/04/04 01:59:25;;;;;;;5.68;3.00;;;;;;;;;;5074032;28;20447;-81
2023/04/04 02:01:51;;;;;;;6.15;2.92;;;;;;;;;;5057125;28;20047;-82
2023/04/04 02:04:17;;;;;;;6.78;3.00;;;;;;;;;;5074858;28;20048;-82
2023/04/04 02:06:43;;;;;;;8.90;3.10;;;;;;;;;;5075295;28;20036;-81
2023/04/04 02:09:08;;;;;;;7.78;2.90;;;;;;;;;;5075430;28;20051;-81
2023/04/04 02:11:34;;;;;;;8.02;3.08;;;;;;;;;;5074221;28;20406;-81
2023/04/04 02:14:00;;;;;;;5.28;3.05;;;;;;;;;;5057448;28;20033;-81
2023/04/04 02:16:26;;;;;;;7.55;3.13;;;;;;;;;;5074251;28;20029;-81
2023/04/04 02:18:51;;;;;;;5.55;3.10;;;;;;;;;;5073978;28;20101;-82
2023/04/04 02:21:17;;;;;;;7.85;3.25;;;;;;;;;;5070988;28;20120;-82
2023/04/04 02:23:42;;;;;;;5.57;3.13;;;;;;;;;;5075009;28;20112;-80
2023/04/04 02:26:08;;;;;;;5.85;2.80;;;;;;;;;;5074034;28;20041;-81
2023/04/04 02:28:36;;;;;;;5.60;3.03;;;;;;;;;;5088988;28;20028;-79
2023/04/04 02:31:01;;;;;;;4.32;2.90;;;;;;;;;;5097048;28;20063;-79
2023/04/04 02:33:28;;;;;;;7.30;3.28;;;;;;;;;;5092910;28;20029;-79
2023/04/04 02:35:58;;;;;;;6.68;3.10;;;;;;;;;;5084141;28;20489;-81
2023/04/04 02:38:25;;;;;;;4.40;2.88;;;;;;;;;;5057429;28;20044;-81
2023/04/04 02:40:51;;;;;;;4.70;2.80;;;;;;;;;;5072940;28;20032;-80
2023/04/04 02:43:16;;;;;;;5.35;2.63;;;;;;;;;;5072968;28;20045;-81
2023/04/04 02:45:43;;;;;;;5.00;2.90;;;;;;;;;;5055331;28;20041;-81
2023/04/04 02:48:24;;;;;;;5.05;2.97;;;;;;;;;;5073831;28;20032;-81
2023/04/04 02:50:51;;;;;;;5.70;2.92;;;;;;;;;;5072105;28;20029;-81
2023/04/04 02:53:17;;;;;;;8.40;3.03;;;;;;;;;;5073509;28;20166;-81
2023/04/04 02:55:45;;;;;;;5.38;3.22;;;;;;;;;;5071001;28;20496;-81
2023/04/04 02:58:10;;;;;;;6.75;3.05;;;;;;;;;;5073515;28;20082;-81
2023/04/04 03:00:36;;;;;;;6.40;3.10;;;;;;;;;;5053828;28;20033;-80
2023/04/04 03:03:02;;;;;;;8.63;2.85;;;;;;;;;;5058872;28;20107;-80
2023/04/04 03:05:31;;;;;;;4.97;2.67;;;;;;;;;;5057059;28;20128;-83
2023/04/04 03:07:58;;;;;;;7.28;2.90;;;;;;;;;;5072185;28;20119;-82
2023/04/04 03:10:28;;;;;;;6.45;3.05;;;;;;;;;;5056891;28;20490;-82
2023/04/04 03:12:54;;;;;;;5.10;2.90;;;;;;;;;;5056069;28;20111;-82
2023/04/04 03:15:21;;;;;;;6.95;3.40;;;;;;;;;;5073313;28;20032;-82
2023/04/04 03:17:47;;;;;;;5.85;3.05;;;;;;;;;;5074295;28;20086;-82
2023/04/04 03:20:14;;;;;;;7.72;2.60;;;;;;;;;;5074664;28;20032;-81
2023/04/04 03:22:40;;;;;;;5.75;3.00;;;;;;;;;;5076333;28;20033;-80
2023/04/04 03:25:07;;;;;;;4.07;2.63;;;;;;;;;;5071895;28;20036;-81
2023/04/04 03:27:33;;;;;;;8.05;2.67;;;;;;;;;;5072896;28;20036;-81
2023/04/04 03:29:59;;;;;;;4.65;2.80;;;;;;;;;;5071645;28;20033;-81
2023/04/04 03:32:28;;;;;;;4.35;2.60;;;;;;;;;;5055123;28;20424;-81
2023/04/04 03:34:53;;;;;;;4.55;2.70;;;;;;;;;;5072882;28;20096;-81
2023/04/04 03:37:19;;;;;;;6.43;3.20;;;;;;;;;;5069764;28;20032;-80
2023/04/04 03:39:44;;;;;;;8.50;3.25;;;;;;;;;;5072908;28;20117;-80
2023/04/04 03:42:11;;;;;;;5.25;3.15;;;;;;;;;;5073135;28;20367;-81
2023/04/04 03:44:41;;;;;;;5.43;2.90;;;;;;;;;;5055302;28;20059;-80
2023/04/04 03:47:11;;;;;;;6.55;2.90;;;;;;;;;;5051648;28;20105;-80
2023/04/04 03:49:36;;;;;;;6.40;3.30;;;;;;;;;;5071076;28;20025;-80
2023/04/04 03:52:02;;;;;;;5.07;2.97;;;;;;;;;;5072606;28;20119;-80
2023/04/04 03:54:28;;;;;;;6.78;2.80;;;;;;;;;;5072008;28;20032;-80
2023/04/04 03:56:55;;;;;;;8.50;2.83;;;;;;;;;;5074320;28;20035;-81
2023/04/04 03:59:21;;;;;;;4.60;2.97;;;;;;;;;;5066910;28;20128;-81
2023/04/04 04:01:47;;;;;;;7.05;3.90;;;;;;;;;;5070288;28;20060;-80
2023/04/04 04:04:12;;;;;;;6.45;2.90;;;;;;;;;;5076810;28;20044;-81
2023/04/04 04:06:39;;;;;;;5.55;3.25;;;;;;;;;;5071716;28;20124;-80
2023/04/04 04:09:04;;;;;;;5.95;3.15;;;;;;;;;;5072358;28;20458;-80
2023/04/04 04:11:30;;;;;;;9.05;3.03;;;;;;;;;;5049648;28;20112;-80
2023/04/04 04:13:55;;;;;;;7.50;3.40;;;;;;;;;;5073591;28;20028;-80
2023/04/04 04:16:21;;;;;;;7.30;3.30;;;;;;;;;;5073976;28;20043;-81
2023/04/04 04:18:47;;;;;;;7.30;3.25;;;;;;;;;;5072060;28;20519;-81
2023/04/04 04:21:20;;;;;;;4.87;3.00;;;;;;;;;;5070590;28;20028;-81
2023/04/04 04:23:45;;;;;;;10.82;3.92;;;;;;;;;;5071567;28;20074;-81
2023/04/04 04:26:11;;;;;;;10.25;3.55;;;;;;;;;;5073252;28;20098;-81
2023/04/04 04:28:36;;;;;;;7.38;3.70;;;;;;;;;;5073376;28;20485;-81
2023/04/04 04:31:09;;;;;;;5.57;3.20;;;;;;;;;;5071717;28;20570;-81
2023/04/04 04:33:41;;;;;;;6.70;3.70;;;;;;;;;;5068552;28;20028;-81
2023/04/04 04:36:06;;;;;;;6.90;3.17;;;;;;;;;;5073364;28;20035;-81
2023/04/04 04:38:43;;;;;;;5.70;3.30;;;;;;;;;;5071759;28;20032;-81
2023/04/04 04:41:09;;;;;;;5.53;2.92;;;;;;;;;;5073242;28;20085;-82
2023/04/04 04:43:41;;;;;;;5.05;3.00;;;;;;;;;;5071655;28;20394;-81
2023/04/04 04:46:09;;;;;;;5.68;3.30;;;;;;;;;;5070561;28;20033;-81
2023/04/04 04:48:35;;;;;;;8.50;3.75;;;;;;;;;;5054197;28;20175;-81
2023/04/04 04:51:01;;;;;;;7.35;3.28;;;;;;;;;;5073049;28;20095;-81
2023/04/04 04:53:38;;;;;;;6.45;3.28;;;;;;;;;;5069676;28;20451;-81
2023/04/04 04:56:04;;;;;;;5.43;3.28;;;;;;;;;;5071743;28;20078;-80
2023/04/04 04:58:31;;;;;;;6.13;3.22;;;;;;;;;;5070439;28;20395;-81
2023/04/04 05:00:58;;;;;;;8.60;3.38;;;;;;;;;;5071781;28;20033;-81
2023/04/04 05:03:32;;;;;;;6.72;3.35;;;;;;;;;;5083784;28;20024;-81
2023/04/04 05:05:58;;;;;;;7.63;3.55;;;;;;;;;;5086096;28;20059;-81
2023/04/04 05:08:23;;;;;;;8.63;3.15;;;;;;;;;;5090615;28;20028;-81
2023/04/04 05:11:12;;;;;;;5.22;3.13;;;;;;;;;;5072656;28;20049;-81
2023/04/04 05:13:37;;;;;;;6.13;3.00;;;;;;;;;;5076884;28;20074;-81
2023/04/04 05:16:03;;;;;;;7.57;3.17;;;;;;;;;;5074107;28;20060;-80
2023/04/04 05:18:31;;;;;;;7.55;3.13;;;;;;;;;;5075238;28;20037;-80
2023/04/04 05:20:56;;;;;;;5.85;3.20;;;;;;;;;;5075537;28;20031;-82
2023/04/04 05:23:25;;;;;;;8.90;3.05;;;;;;;;;;5073830;28;20033;-81
2023/04/04 05:25:52;;;;;;;7.55;3.22;;;;;;;;;;5075357;28;20476;-81
2023/04/04 05:28:19;;;;;;;6.65;3.10;;;;;;;;;;5072968;28;20029;-81
2023/04/04 05:30:47;;;;;;;6.32;3.33;;;;;;;;;;5075537;28;20029;-82
2023/04/04 05:33:16;;;;;;;12.52;5.00;;;;;;;;;;5072808;28;20043;-82
2023/04/04 05:35:49;;;;;;;9.35;4.47;;;;;;;;;;5075277;28;20060;-81
2023/04/04 05:38:16;;;;;;;12.60;6.78;;;;;;;;;;5073327;28;20409;-81
2023/04/04 05:40:44;;;;;;;45.95;16.88;;;;;;;;;;5074712;28;20060;-81
2023/04/04 05:43:12;;;;;;;29.80;10.13;;;;;;;;;;5074211;28;20741;-81
2023/04/04 05:45:49;;;;;;;23.02;9.32;;;;;;;;;;5075104;28;20060;-80
2023/04/04 05:48:15;;;;;;;39.80;15.75;;;;;;;;;;5072693;28;20445;-80
2023/04/04 05:50:47;;;;;;;9.13;4.82;;;;;;;;;;5072869;28;20028;-81
2023/04/04 05:53:15;;;;;;;24.00;12.02;;;;;;;;;;5069244;28;20379;-81
2023/04/04 05:55:44;;;;;;;16.27;8.82;;;;;;;;;;5072260;28;20047;-81
2023/04/04 05:58:09;;;;;;;13.50;6.88;;;;;;;;;;5056007;28;20417;-80
2023/04/04 06:00:48;;;;;;;14.13;6.22;;;;;;;;;;5074179;28;20036;-81
2023/04/04 06:03:15;;;;;;;36.75;15.65;;;;;;;;;;5073888;28;20032;-81
2023/04/04 06:05:43;;;;;;;100.50;29.45;;;;;;;;;;5067568;28;20067;-81
2023/04/04 06:08:09;;;;;;;25.50;11.15;;;;;;;;;;5073017;28;20494;-81
2023/04/04 06:10:35;;;;;;;9.38;5.00;;;;;;;;;;5075820;28;20548;-81
2023/04/04 06:13:00;;;;;;;7.75;3.50;;;;;;;;;;5075061;28;20112;-80
2023/04/04 06:15:27;;;;;;;7.63;3.30;;;;;;;;;;5072295;28;20037;-81
2023/04/04 06:17:53;;;;;;;5.65;3.17;;;;;;;;;;5091271;28;20038;-80
2023/04/04 06:20:20;;;;;;;7.03;3.50;;;;;;;;;;5075580;28;20555;-81
2023/04/04 06:22:46;;;;;;;8.38;4.20;;;;;;;;;;5072590;28;20033;-80
2023/04/04 06:25:13;;;;;;;6.78;3.60;;;;;;;;;;5057688;28;20047;-80
2023/04/04 06:27:39;;;;;;;9.02;3.33;;;;;;;;;;5056210;28;20116;-80
2023/04/04 06:30:06;;;;;;;7.88;3.60;;;;;;;;;;5072353;28;20048;-81
2023/04/04 06:32:33;;;;;;;9.68;3.60;;;;;;;;;;5074065;28;20024;-81
2023/04/04 06:35:00;;;;;;;8.00;3.10;;;;;;;;;;5073826;28;20409;-81
2023/04/04 06:37:37;;;;;;;7.68;3.63;;;;;;;;;;5073927;28;20036;-82
2023/04/04 06:40:10;;;;;;;;;;;;;;;;;;5058901;28;20036;-79
2023/04/04 06:42:36;;;;;;;5.82;2.80;;;;;;;;;;5072706;28;19913;-82
2023/04/04 06:45:03;;;;;;;5.43;2.90;;;;;;;;;;5073876;28;20032;-81
2023/04/04 06:47:29;;;;;;;7.50;3.70;;;;;;;;;;5074505;28;20097;-81
2023/04/04 06:49:54;;;;;;;5.80;3.28;;;;;;;;;;5074659;28;20033;-82
2023/04/04 06:52:20;;;;;;;7.53;3.38;;;;;;;;;;5071855;28;20033;-82
2023/04/04 06:54:46;;;;;;;5.70;3.13;;;;;;;;;;5074874;28;20046;-82
2023/04/04 06:57:13;;;;;;;8.65;3.35;;;;;;;;;;5074801;28;20048;-82
2023/04/04 06:59:40;;;;;;;8.70;4.30;;;;;;;;;;5072796;28;20029;-81
2023/04/04 07:02:06;;;;;;;5.40;3.17;;;;;;;;;;5071423;28;20379;-82
2023/04/04 07:04:33;;;;;;;6.85;3.38;;;;;;;;;;5072769;28;20441;-81
2023/04/04 07:06:59;;;;;;;7.25;3.00;;;;;;;;;;5072564;28;20456;-82
2023/04/04 07:09:25;;;;;;;4.70;3.00;;;;;;;;;;5073011;28;20036;-82
2023/04/04 07:11:50;;;;;;;6.13;3.20;;;;;;;;;;5072482;28;20579;-82
2023/04/04 07:14:16;;;;;;;5.95;3.00;;;;;;;;;;5074049;28;20042;-82
2023/04/04 07:16:42;;;;;;;6.43;3.30;;;;;;;;;;5072845;28;20040;-81
2023/04/04 07:19:07;;;;;;;7.53;3.10;;;;;;;;;;5074038;28;20029;-82
2023/04/04 07:21:33;;;;;;;7.18;3.47;;;;;;;;;;5073916;28;20036;-82
2023/04/04 07:24:01;;;;;;;5.47;3.00;;;;;;;;;;5073472;28;20029;-81
2023/04/04 07:26:26;;;;;;;5.18;2.97;;;;;;;;;;5072961;28;20070;-81
2023/04/04 07:28:52;;;;;;;7.63;3.08;;;;;;;;;;5073450;28;20508;-81
2023/04/04 07:31:17;;;;;;;6.60;3.30;;;;;;;;;;5073768;28;20028;-81
2023/04/04 07:33:43;;;;;;;9.40;3.03;;;;;;;;;;5073325;28;20032;-81
2023/04/04 07:36:08;;;;;;;7.30;3.03;;;;;;;;;;5072119;28;20052;-81
2023/04/04 07:38:35;;;;;;;5.40;3.10;;;;;;;;;;5068905;28;20094;-80
2023/04/04 07:41:00;;;;;;;6.75;3.13;;;;;;;;;;5072389;28;20082;-82
2023/04/04 07:43:26;;;;;;;5.75;3.08;;;;;;;;;;5092074;22;20045;-85
2023/04/04 07:45:53;;;;;;;10.10;5.55;;;;;;;;;;5057699;28;20429;-86
2023/04/04 07:48:19;;;;;;;17.20;8.05;;;;;;;;;;5058122;28;20041;-85
2023/04/04 07:50:44;;;;;;;8.80;4.85;;;;;;;;;;5057944;28;20037;-83
2023/04/04 07:53:10;;;;;;;28.45;14.27;;;;;;;;;;5056739;28;20414;-84
2023/04/04 07:55:35;;;;;;;210.10;97.57;;;;;;;;;;5053456;28;20036;-85
2023/04/04 07:58:01;;;;;;;31.52;15.63;;;;;;;;;;5054446;28;20045;-85
2023/04/04 08:00:27;;;;;;;10.88;6.80;;;;;;;;;;5056327;28;20035;-85
2023/04/04 08:02:53;;;;;;;9.43;5.53;;;;;;;;;;5054543;28;20033;-85
2023/04/04 08:05:20;;;;;;;9.07;5.00;;;;;;;;;;5053272;28;20103;-85
2023/04/04 08:07:46;;;;;;;8.63;4.40;;;;;;;;;;5060377;28;20441;-85
2023/04/04 08:10:12;;;;;;;10.05;5.55;;;;;;;;;;5037870;28;20461;-84
2023/04/04 08:12:41;;;;;;;8.07;4.90;;;;;;;;;;5053664;28;20064;-85
2023/04/04 08:15:06;;;;;;;5.32;3.10;;;;;;;;;;5055475;28;20044;-85
2023/04/04 08:17:32;;;;;;;8.40;4.47;;;;;;;;;;5051301;28;20090;-84
2023/04/04 08:19:57;;;;;;;8.13;4.05;;;;;;;;;;5033192;28;20029;-85
2023/04/04 08:22:23;;;;;;;5.57;3.30;;;;;;;;;;5054503;28;20127;-86
2023/04/04 08:24:48;;;;;;;5.88;3.33;;;;;;;;;;5053267;28;20025;-85
2023/04/04 08:27:14;;;;;;;8.63;4.50;;;;;;;;;;5053487;28;20405;-85
2023/04/04 08:29:40;;;;;;;6.68;3.78;;;;;;;;;;5055136;28;20040;-84
2023/04/04 08:32:06;;;;;;;5.40;2.70;;;;;;;;;;5055276;28;20033;-85
2023/04/04 08:34:32;;;;;;;5.78;2.80;;;;;;;;;;5054380;28;20068;-84
2023/04/04 08:36:57;;;;;;;5.32;2.80;;;;;;;;;;5053680;28;20048;-85
2023/04/04 08:39:22;;;;;;;6.10;3.00;;;;;;;;;;5056080;28;20032;-86
2023/04/04 08:42:15;;;;;;;6.00;2.97;;;;;;;;;;5055773;28;20032;-84
2023/04/04 08:44:44;;;;;;;3.78;2.60;;;;;;;;;;5055692;28;20040;-84
2023/04/04 08:47:10;;;;;;;4.90;2.72;;;;;;;;;;5053765;28;20090;-86
2023/04/04 08:49:42;;;;;;;6.38;3.10;;;;;;;;;;5055839;28;20049;-85
2023/04/04 08:52:11;;;;;;;5.75;2.90;;;;;;;;;;5025660;28;20184;-85
2023/04/04 08:54:38;;;;;;;5.82;2.67;;;;;;;;;;5032058;28;20045;-85
2023/04/04 08:57:04;;;;;;;4.60;2.95;;;;;;;;;;5053617;28;20029;-85
2023/04/04 08:59:30;;;;;;;4.50;2.85;;;;;;;;;;5060414;28;20402;-85
2023/04/04 09:02:08;;;;;;;5.32;2.63;;;;;;;;;;5050695;28;20037;-85
2023/04/04 09:04:33;;;;;;;6.00;3.00;;;;;;;;;;5050814;28;20090;-86
2023/04/04 09:07:02;;;;;;;4.85;3.17;;;;;;;;;;5031577;28;20033;-86
2023/04/04 09:09:29;;;;;;;6.03;3.17;;;;;;;;;;5051295;28;20102;-87
2023/04/04 09:11:55;;;;;;;5.63;3.10;;;;;;;;;;5052868;28;20033;-86
2023/04/04 09:14:21;;;;;;;5.57;2.83;;;;;;;;;;5052191;28;20025;-87
2023/04/04 09:16:46;;;;;;;4.45;2.83;;;;;;;;;;5050075;28;20039;-85
2023/04/04 09:19:12;;;;;;;5.97;2.60;;;;;;;;;;5050118;28;20029;-84
2023/04/04 09:21:38;;;;;;;5.43;3.00;;;;;;;;;;5049942;28;21015;-83
2023/04/04 09:24:03;;;;;;;7.38;2.72;;;;;;;;;;5050210;28;20119;-82
2023/04/04 09:26:46;;;;;;;4.93;2.80;;;;;;;;;;5058638;28;20471;-86
2023/04/04 09:29:12;;;;;;;4.37;2.80;;;;;;;;;;5052439;28;20033;-85
2023/04/04 09:31:38;;;;;;;8.00;3.00;;;;;;;;;;5053081;28;20075;-86
2023/04/04 09:34:04;;;;;;;6.88;3.25;;;;;;;;;;5054130;28;20029;-86
2023/04/04 09:36:30;;;;;;;6.07;3.05;;;;;;;;;;5053176;28;20033;-86
2023/04/04 09:38:56;;;;;;;6.38;2.80;;;;;;;;;;5052948;28;20139;-86
2023/04/04 09:41:21;;;;;;;6.72;2.55;;;;;;;;;;5053041;28;20086;-85
2023/04/04 09:43:48;;;;;;;5.15;2.90;;;;;;;;;;5050325;28;20033;-84
2023/04/04 09:46:16;;;;;;;6.63;3.00;;;;;;;;;;5053844;28;20040;-85
2023/04/04 09:48:47;;;;;;;6.78;3.80;;;;;;;;;;5052685;28;20045;-85
2023/04/04 09:51:13;;;;;;;4.97;3.00;;;;;;;;;;5056915;28;20120;-85
2023/04/04 09:53:40;;;;;;;5.80;3.15;;;;;;;;;;5068353;28;20057;-84
2023/04/04 09:56:06;;;;;;;4.57;2.85;;;;;;;;;;5054619;28;20108;-86
2023/04/04 09:58:35;;;;;;;7.18;3.00;;;;;;;;;;5058281;28;20055;-86
2023/04/04 10:01:02;;;;;;;5.85;2.70;;;;;;;;;;5060797;28;20051;-86
2023/04/04 10:03:29;;;;;;;6.18;3.10;;;;;;;;;;5063861;28;20446;-86
2023/04/04 10:06:06;;;;;;;8.30;3.50;;;;;;;;;;5054448;28;20033;-85
2023/04/04 10:08:32;;;;;;;6.55;2.95;;;;;;;;;;5057425;28;20581;-85
2023/04/04 10:11:03;;;;;;;5.72;3.00;;;;;;;;;;5055266;28;20047;-86
2023/04/04 10:13:40;;;;;;;5.18;2.88;;;;;;;;;;5056808;28;20028;-85
2023/04/04 10:16:07;;;;;;;4.78;2.83;;;;;;;;;;5053815;28;20107;-86
2023/04/04 10:18:34;;;;;;;4.38;2.85;;;;;;;;;;5056401;28;20037;-85
2023/04/04 10:21:01;;;;;;;4.53;2.80;;;;;;;;;;5055547;28;20033;-85
2023/04/04 10:23:27;;;;;;;4.95;2.90;;;;;;;;;;5054910;28;20063;-84
2023/04/04 10:25:53;;;;;;;3.80;2.65;;;;;;;;;;5037659;28;20498;-86
2023/04/04 10:28:20;;;;;;;6.68;2.90;;;;;;;;;;5055130;28;20036;-85
2023/04/04 10:31:10;;;;;;;6.93;2.83;;;;;;;;;;5036304;28;20475;-84
2023/04/04 10:34:03;;;;;;;5.97;3.38;;;;;;;;;;5036578;28;20037;-83
2023/04/04 10:36:49;;;;;;;5.80;3.10;;;;;;;;;;5055343;28;20095;-85
2023/04/04 10:39:24;;;;;;;6.95;2.83;;;;;;;;;;5054003;28;20040;-86
2023/04/04 10:41:51;;;;;;;5.00;2.78;;;;;;;;;;5049908;28;20056;-85
2023/04/04 10:44:32;;;;;;;5.65;3.20;;;;;;;;;;5057360;28;20045;-85
2023/04/04 10:47:13;;;;;;;5.15;2.70;;;;;;;;;;5055903;28;20044;-83
2023/04/04 10:49:42;;;;;;;3.78;2.70;;;;;;;;;;5057988;28;20036;-85
2023/04/04 10:52:19;;;;;;;4.90;2.70;;;;;;;;;;5058049;28;20033;-84
2023/04/04 10:54:47;;;;;;;4.40;2.80;;;;;;;;;;5057252;28;20032;-85
2023/04/04 10:57:13;;;;;;;7.38;3.30;;;;;;;;;;5058893;28;20097;-83
2023/04/04 11:00:00;;;;;;;6.22;3.13;;;;;;;;;;5054665;28;20025;-85
2023/04/04 11:02:44;;;;;;;4.72;3.00;;;;;;;;;;5054842;28;20090;-85
2023/04/04 11:05:24;;;;;;;5.22;3.08;;;;;;;;;;5057115;28;20119;-86
2023/04/04 11:07:56;;;;;;;5.18;2.90;;;;;;;;;;5052589;28;20042;-86
2023/04/04 11:10:24;;;;;;;6.97;3.47;;;;;;;;;;5048408;28;20083;-85
2023/04/04 11:12:54;;;;;;;5.05;3.00;;;;;;;;;;5053626;28;20032;-86
2023/04/04 11:15:21;;;;;;;6.47;3.63;;;;;;;;;;5056092;28;20076;-85
2023/04/04 11:18:01;;;;;;;6.60;3.28;;;;;;;;;;5056201;28;20040;-87
2023/04/04 11:20:35;;;;;;;5.60;3.10;;;;;;;;;;5055407;28;20064;-85
2023/04/04 11:23:08;;;;;;;6.05;3.45;;;;;;;;;;5056179;28;20037;-86
2023/04/04 11:25:36;;;;;;;8.45;3.20;;;;;;;;;;5052302;28;20509;-85
2023/04/04 11:28:07;;;;;;;5.90;3.22;;;;;;;;;;5055760;28;20045;-83
2023/04/04 11:30:47;;;;;;;4.70;3.30;;;;;;;;;;5051381;28;20040;-85
2023/04/04 11:33:24;;;;;;;6.30;3.15;;;;;;;;;;5054356;28;20021;-87
2023/04/04 11:35:50;;;;;;;5.35;3.20;;;;;;;;;;5068701;28;20121;-85
2023/04/04 11:38:18;;;;;;;6.38;3.25;;;;;;;;;;5055104;28;20048;-84
2023/04/04 11:40:53;;;;;;;4.95;3.20;;;;;;;;;;5054348;28;20032;-83
2023/04/04 11:43:19;;;;;;;4.82;3.42;;;;;;;;;;5055170;28;20033;-85
2023/04/04 11:45:45;;;;;;;6.18;3.80;;;;;;;;;;5055471;28;20017;-88
2023/04/04 11:48:14;;;;;;;6.63;2.95;;;;;;;;;;5054452;28;20032;-86
2023/04/04 11:50:41;;;;;;;9.23;3.13;;;;;;;;;;5055149;28;20104;-84
2023/04/04 11:53:08;;;;;;;6.53;2.97;;;;;;;;;;5054776;28;20032;-85
2023/04/04 11:55:41;;;;;;;5.43;3.15;;;;;;;;;;5053215;28;20525;-84
2023/04/04 11:58:11;;;;;;;4.65;3.20;;;;;;;;;;5056583;28;20086;-86
2023/04/04 12:00:38;;;;;;;7.85;4.00;;;;;;;;;;5052279;28;20115;-85
2023/04/04 12:03:09;;;;;;;5.68;3.25;;;;;;;;;;5055304;28;20037;-84
2023/04/04 12:05:37;;;;;;;4.70;3.20;;;;;;;;;;5037830;28;20041;-85
2023/04/04 12:10:47;;;;;;;5.78;3.60;;;;;;;;;;5054339;28;20037;-84
2023/04/04 12:13:13;;;;;;;4.65;3.05;;;;;;;;;;5066629;28;20025;-85
2023/04/04 12:15:41;;;;;;;5.28;3.38;;;;;;;;;;5054221;28;20509;-87
2023/04/04 12:18:07;;;;;;;5.28;3.35;;;;;;;;;;5050797;28;20049;-83
2023/04/04 12:20:36;;;;;;;7.90;3.40;;;;;;;;;;5053855;28;20029;-85
2023/04/04 12:23:02;;;;;;;4.35;3.20;;;;;;;;;;5052873;28;20040;-85
2023/04/04 12:25:32;;;;;;;3.88;2.90;;;;;;;;;;5044255;28;20033;-86
2023/04/04 12:27:58;;;;;;;3.92;2.72;;;;;;;;;;5035780;28;20119;-85
2023/04/04 12:30:24;;;;;;;5.38;3.33;;;;;;;;;;5034166;28;20041;-85
2023/04/04 12:32:50;;;;;;;6.18;3.33;;;;;;;;;;5052815;28;20035;-86
2023/04/04 12:35:17;;;;;;;4.65;3.30;;;;;;;;;;5053393;28;20398;-85
2023/04/04 12:37:56;;;;;;;5.43;3.15;;;;;;;;;;5052000;28;20033;-85
2023/04/04 12:40:22;;;;;;;6.50;3.38;;;;;;;;;;5051973;28;20098;-85
2023/04/04 12:42:48;;;;;;;5.00;3.20;;;;;;;;;;5051289;28;20033;-83
2023/04/04 12:45:13;;;;;;;5.00;2.55;;;;;;;;;;5053368;28;20040;-86
2023/04/04 12:47:51;;;;;;;5.18;3.20;;;;;;;;;;5051341;28;20097;-86
2023/04/04 12:50:27;;;;;;;6.60;3.08;;;;;;;;;;5050633;28;20065;-86
2023/04/04 12:52:55;;;;;;;6.28;3.17;;;;;;;;;;5053292;28;20147;-86
2023/04/04 12:55:22;;;;;;;6.30;3.00;;;;;;;;;;5049422;28;20033;-85
2023/04/04 12:57:49;;;;;;;4.00;2.95;;;;;;;;;;5052759;28;20033;-84
2023/04/04 13:00:15;;;;;;;5.75;3.17;;;;;;;;;;5052812;28;20041;-86
2023/04/04 13:02:48;;;;;;;5.18;3.13;;;;;;;;;;5034666;28;20043;-86
2023/04/04 13:05:15;;;;;;;8.30;3.00;;;;;;;;;;5052436;28;20083;-85
2023/04/04 13:07:43;;;;;;;5.72;3.35;;;;;;;;;;5050845;28;20036;-85
2023/04/04 13:10:13;;;;;;;6.45;2.88;;;;;;;;;;5051464;28;20041;-84
2023/04/04 13:12:55;;;;;;;5.05;2.90;;;;;;;;;;5059518;28;20043;-82
2023/04/04 13:15:21;;;;;;;5.45;2.97;;;;;;;;;;5061308;28;20068;-83
2023/04/04 13:17:49;;;;;;;5.35;3.38;;;;;;;;;;5048851;28;20034;-85
2023/04/04 13:20:17;;;;;;;5.20;3.00;;;;;;;;;;5052837;28;20137;-86
2023/04/04 13:22:43;;;;;;;5.15;3.20;;;;;;;;;;5037546;28;20038;-86
2023/04/04 13:25:09;;;;;;;3.97;2.70;;;;;;;;;;5055700;28;20029;-85
2023/04/04 13:27:36;;;;;;;5.40;3.22;;;;;;;;;;5071403;28;20109;-83
2023/04/04 13:30:03;;;;;;;6.10;3.13;;;;;;;;;;5056298;28;20032;-86
2023/04/04 13:32:29;;;;;;;5.43;3.30;;;;;;;;;;5056975;28;20044;-86
2023/04/04 13:34:54;;;;;;;6.13;3.25;;;;;;;;;;5055512;28;20033;-86
2023/04/04 13:37:20;;;;;;;4.80;3.05;;;;;;;;;;5057228;28;20142;-85
2023/04/04 13:39:45;;;;;;;5.05;2.78;;;;;;;;;;5049398;28;20044;-84
2023/04/04 13:42:12;;;;;;;4.53;2.88;;;;;;;;;;5055684;28;20115;-85
2023/04/04 13:47:05;;;;;;;4.00;2.80;;;;;;;;;;4973273;28;20062;-83
2023/04/04 13:49:31;;;;;;;7.43;3.03;;;;;;;;;;4994309;28;20043;-84
2023/04/04 13:51:56;;;;;;;4.78;3.10;;;;;;;;;;4994057;28;20035;-83
2023/04/04 13:54:22;;;;;;;6.28;2.80;;;;;;;;;;4979236;28;20038;-83
2023/04/04 13:56:47;;;;;;;7.82;3.53;;;;;;;;;;4996147;28;20038;-83
2023/04/04 13:59:13;;;;;;;6.18;3.60;;;;;;;;;;4996523;28;20038;-83
2023/04/04 14:01:39;;;;;;;6.35;3.83;;;;;;;;;;4994644;28;20046;-83
2023/04/04 14:04:05;;;;;;;5.50;3.30;;;;;;;;;;4998123;28;20042;-82
2023/04/04 14:06:31;;;;;;;5.45;3.40;;;;;;;;;;5005488;28;20057;-82
2023/04/04 14:08:57;;;;;;;5.30;2.92;;;;;;;;;;4998152;28;20039;-82
2023/04/04 14:11:24;;;;;;;3.50;2.80;;;;;;;;;;4998283;28;20038;-83
2023/04/04 14:13:50;;;;;;;4.20;2.95;;;;;;;;;;4996445;28;20177;-82
2023/04/04 14:16:16;;;;;;;4.20;2.85;;;;;;;;;;4995611;28;20137;-82
2023/04/04 14:18:43;;;;;;;4.70;2.95;;;;;;;;;;4997134;28;20664;-83
2023/04/04 14:21:08;;;;;;;4.97;2.90;;;;;;;;;;4995936;28;20493;-82
2023/04/04 14:23:34;;;;;;;4.82;2.90;;;;;;;;;;5009657;28;20042;-82
2023/04/04 14:25:59;;;;;;;3.72;2.58;;;;;;;;;;4996701;28;20484;-82
2023/04/04 14:28:26;;;;;;;4.53;2.85;;;;;;;;;;4997352;28;20042;-82
2023/04/04 14:30:51;;;;;;;4.95;2.70;;;;;;;;;;4998252;28;20092;-82
2023/04/04 14:33:17;;;;;;;5.47;3.15;;;;;;;;;;4998025;28;20031;-82
2023/04/04 14:35:42;;;;;;;5.55;2.83;;;;;;;;;;5011178;28;20038;-83
2023/04/04 14:38:08;;;;;;;4.45;3.10;;;;;;;;;;5005847;28;20026;-83
2023/04/04 14:40:33;;;;;;;5.57;2.63;;;;;;;;;;4996493;28;20492;-83
2023/04/04 14:42:59;;;;;;;4.72;2.90;;;;;;;;;;4997516;28;20041;-83
2023/04/04 14:45:27;;;;;;;4.22;2.90;;;;;;;;;;4998180;28;20057;-82
2023/04/04 14:47:53;;;;;;;7.68;2.75;;;;;;;;;;4994885;28;20105;-82
2023/04/04 14:50:18;;;;;;;4.63;3.15;;;;;;;;;;4997612;28;20416;-83
2023/04/04 14:52:44;;;;;;;4.70;2.58;;;;;;;;;;4997401;28;20030;-84